BAW924 EGLL-EDDL
Flight info
| Callsign | BAW924 |
|---|---|
| Flight time | 0h 46m |
| Altitude | 33000 |
| Route | DET L6 DVR UL9 KONAN UL607 SPI Y862 KENUM M170 NVO T857 BIKMU BIKMU1A |
| Aircraft | A319/M-SDE3FGHIRWY/LB1 |
Departure
| Time | 2026-05-07 19:17 |
|---|---|
| Airport | London Heathrow Airport (EGLL) |
Arrival
| Time | 2026-05-07 20:03 |
|---|---|
| Airport | Düsseldorf Airport (EDDL) |
| Time | Latitude | Longitude | Altitude | Speed | Heading |
|---|---|---|---|---|---|
| 2026-05-07 18:39 | 51.47115 | -0.48210 | 90 ft | 0 kts | 90° |
| 2026-05-07 18:39 | 51.47115 | -0.48217 | 90 ft | 0 kts | 90° |
| 2026-05-07 19:05 | 51.47115 | -0.48252 | 88 ft | 4 kts | 90° |
| 2026-05-07 19:05 | 51.47115 | -0.48296 | 86 ft | 4 kts | 90° |
| 2026-05-07 19:05 | 51.47115 | -0.48329 | 87 ft | 4 kts | 111° |
| 2026-05-07 19:05 | 51.47130 | -0.48355 | 91 ft | 4 kts | 172° |
| 2026-05-07 19:06 | 51.47152 | -0.48357 | 91 ft | 1 kts | 180° |
| 2026-05-07 19:06 | 51.47153 | -0.48357 | 91 ft | 2 kts | 180° |
| 2026-05-07 19:08 | 51.47146 | -0.48357 | 89 ft | 2 kts | 180° |
| 2026-05-07 19:09 | 51.47112 | -0.48357 | 86 ft | 7 kts | 180° |
| 2026-05-07 19:09 | 51.47054 | -0.48356 | 88 ft | 9 kts | 180° |
| 2026-05-07 19:09 | 51.46994 | -0.48356 | 86 ft | 8 kts | 180° |
| 2026-05-07 19:09 | 51.46937 | -0.48355 | 86 ft | 9 kts | 179° |
| 2026-05-07 19:10 | 51.46878 | -0.48354 | 87 ft | 8 kts | 180° |
| 2026-05-07 19:10 | 51.46840 | -0.48354 | 86 ft | 3 kts | 180° |
| 2026-05-07 19:10 | 51.46825 | -0.48354 | 86 ft | 1 kts | 179° |
| 2026-05-07 19:11 | 51.46801 | -0.48354 | 86 ft | 6 kts | 179° |
| 2026-05-07 19:12 | 51.46751 | -0.48367 | 86 ft | 9 kts | 221° |
| 2026-05-07 19:12 | 51.46742 | -0.48475 | 86 ft | 11 kts | 269° |
| 2026-05-07 19:12 | 51.46741 | -0.48616 | 86 ft | 14 kts | 270° |
| 2026-05-07 19:12 | 51.46718 | -0.48739 | 87 ft | 12 kts | 210° |
| 2026-05-07 19:13 | 51.46639 | -0.48750 | 86 ft | 11 kts | 186° |
| 2026-05-07 19:13 | 51.46597 | -0.48769 | 89 ft | 2 kts | 199° |
| 2026-05-07 19:13 | 51.46595 | -0.48770 | 89 ft | 0 kts | 199° |
| 2026-05-07 19:14 | 51.46593 | -0.48771 | 88 ft | 1 kts | 199° |
| 2026-05-07 19:14 | 51.46573 | -0.48781 | 86 ft | 5 kts | 195° |
| 2026-05-07 19:15 | 51.46524 | -0.48783 | 89 ft | 9 kts | 166° |
| 2026-05-07 19:15 | 51.46478 | -0.48689 | 86 ft | 10 kts | 97° |
| 2026-05-07 19:15 | 51.46478 | -0.48665 | 86 ft | 0 kts | 90° |
| 2026-05-07 19:16 | 51.46478 | -0.48662 | 86 ft | 2 kts | 90° |
| 2026-05-07 19:16 | 51.46478 | -0.48511 | 86 ft | 39 kts | 90° |
| 2026-05-07 19:16 | 51.46480 | -0.47716 | 86 ft | 102 kts | 89° |
| 2026-05-07 19:17 | 51.46484 | -0.46270 | 100 ft | 155 kts | 91° |
| 2026-05-07 19:17 | 51.46500 | -0.44523 | 724 ft | 155 kts | 91° |
| 2026-05-07 19:17 | 51.46521 | -0.42802 | 1377 ft | 161 kts | 91° |
| 2026-05-07 19:17 | 51.46232 | -0.40968 | 1731 ft | 182 kts | 124° |
| 2026-05-07 19:18 | 51.45429 | -0.39275 | 2193 ft | 202 kts | 126° |
| 2026-05-07 19:18 | 51.44622 | -0.37258 | 2690 ft | 228 kts | 121° |
| 2026-05-07 19:18 | 51.43796 | -0.34924 | 3190 ft | 251 kts | 114° |
| 2026-05-07 19:18 | 51.43324 | -0.32212 | 3594 ft | 255 kts | 103° |
| 2026-05-07 19:19 | 51.42925 | -0.29419 | 3896 ft | 258 kts | 103° |
| 2026-05-07 19:19 | 51.42526 | -0.26614 | 4087 ft | 258 kts | 102° |
| 2026-05-07 19:19 | 51.42139 | -0.23800 | 4351 ft | 259 kts | 102° |
| 2026-05-07 19:19 | 51.41759 | -0.20984 | 4612 ft | 260 kts | 102° |
| 2026-05-07 19:20 | 51.41373 | -0.18147 | 4875 ft | 261 kts | 102° |
| 2026-05-07 19:20 | 51.40983 | -0.15301 | 5130 ft | 263 kts | 102° |
| 2026-05-07 19:20 | 51.40589 | -0.12427 | 5387 ft | 264 kts | 102° |
| 2026-05-07 19:20 | 51.40194 | -0.09559 | 5644 ft | 265 kts | 102° |
| 2026-05-07 19:21 | 51.39796 | -0.06656 | 5899 ft | 268 kts | 102° |
| 2026-05-07 19:21 | 51.39394 | -0.03738 | 6000 ft | 269 kts | 102° |
| 2026-05-07 19:21 | 51.38984 | -0.00811 | 6020 ft | 269 kts | 102° |
| 2026-05-07 19:21 | 51.38573 | 0.02124 | 6036 ft | 269 kts | 103° |
| 2026-05-07 19:22 | 51.38171 | 0.05005 | 6035 ft | 269 kts | 102° |
| 2026-05-07 19:22 | 51.37760 | 0.07968 | 6055 ft | 271 kts | 102° |
| 2026-05-07 19:22 | 51.37352 | 0.10892 | 6859 ft | 273 kts | 103° |
| 2026-05-07 19:22 | 51.36936 | 0.13875 | 7794 ft | 277 kts | 104° |
| 2026-05-07 19:23 | 51.36508 | 0.16915 | 8685 ft | 283 kts | 104° |
| 2026-05-07 19:23 | 51.36071 | 0.20022 | 9597 ft | 288 kts | 104° |
| 2026-05-07 19:23 | 51.35625 | 0.23189 | 10325 ft | 300 kts | 104° |
| 2026-05-07 19:23 | 51.35144 | 0.26574 | 10628 ft | 323 kts | 104° |
| 2026-05-07 19:24 | 51.34630 | 0.30166 | 11119 ft | 337 kts | 104° |
| 2026-05-07 19:24 | 51.34283 | 0.32599 | 11594 ft | 340 kts | 104° |
| 2026-05-07 19:24 | 51.33753 | 0.36314 | 12371 ft | 345 kts | 104° |
| 2026-05-07 19:24 | 51.33217 | 0.40077 | 13159 ft | 349 kts | 104° |
| 2026-05-07 19:25 | 51.32673 | 0.43874 | 13746 ft | 353 kts | 104° |
| 2026-05-07 19:25 | 51.32122 | 0.47722 | 14436 ft | 357 kts | 104° |
| 2026-05-07 19:25 | 51.31564 | 0.51605 | 15112 ft | 361 kts | 104° |
| 2026-05-07 19:25 | 51.30996 | 0.55544 | 15655 ft | 364 kts | 104° |
| 2026-05-07 19:26 | 51.30427 | 0.59499 | 16178 ft | 367 kts | 104° |
| 2026-05-07 19:26 | 51.29796 | 0.63469 | 16711 ft | 370 kts | 107° |
| 2026-05-07 19:26 | 51.29091 | 0.67445 | 17062 ft | 373 kts | 108° |
| 2026-05-07 19:26 | 51.28343 | 0.71423 | 17344 ft | 374 kts | 108° |
| 2026-05-07 19:27 | 51.27579 | 0.75402 | 17628 ft | 376 kts | 109° |
| 2026-05-07 19:27 | 51.26812 | 0.79415 | 17896 ft | 378 kts | 108° |
| 2026-05-07 19:27 | 51.26053 | 0.83436 | 17989 ft | 379 kts | 108° |
| 2026-05-07 19:27 | 51.25302 | 0.87470 | 18017 ft | 379 kts | 108° |
| 2026-05-07 19:28 | 51.24555 | 0.91510 | 18037 ft | 379 kts | 108° |
| 2026-05-07 19:28 | 51.23810 | 0.95556 | 18079 ft | 379 kts | 108° |
| 2026-05-07 19:28 | 51.23177 | 0.99637 | 18079 ft | 381 kts | 97° |
| 2026-05-07 19:28 | 51.23059 | 1.03859 | 18083 ft | 382 kts | 92° |
| 2026-05-07 19:29 | 51.23017 | 1.08098 | 18082 ft | 382 kts | 91° |
| 2026-05-07 19:29 | 51.22979 | 1.12333 | 18082 ft | 382 kts | 91° |
| 2026-05-07 19:29 | 51.22941 | 1.16577 | 18082 ft | 382 kts | 91° |
| 2026-05-07 19:29 | 51.22903 | 1.20812 | 18082 ft | 382 kts | 91° |
| 2026-05-07 19:30 | 51.22865 | 1.25051 | 18081 ft | 382 kts | 91° |
| 2026-05-07 19:30 | 51.22829 | 1.29280 | 18084 ft | 382 kts | 91° |
| 2026-05-07 19:30 | 51.22792 | 1.33467 | 18081 ft | 382 kts | 91° |
| 2026-05-07 19:30 | 51.22755 | 1.37727 | 18379 ft | 385 kts | 92° |
| 2026-05-07 19:31 | 51.22716 | 1.42015 | 18973 ft | 388 kts | 92° |
| 2026-05-07 19:31 | 51.22674 | 1.46332 | 19571 ft | 391 kts | 92° |
| 2026-05-07 19:31 | 51.22626 | 1.50681 | 20180 ft | 394 kts | 92° |
| 2026-05-07 19:31 | 51.22578 | 1.55083 | 20788 ft | 398 kts | 92° |
| 2026-05-07 19:32 | 51.22529 | 1.59517 | 21389 ft | 402 kts | 92° |
| 2026-05-07 19:32 | 51.22481 | 1.63997 | 21973 ft | 405 kts | 92° |
| 2026-05-07 19:32 | 51.22432 | 1.68528 | 22557 ft | 409 kts | 92° |
| 2026-05-07 19:32 | 51.22383 | 1.73096 | 23129 ft | 413 kts | 92° |
| 2026-05-07 19:33 | 51.22334 | 1.77696 | 23679 ft | 416 kts | 92° |
| 2026-05-07 19:33 | 51.22285 | 1.82270 | 24139 ft | 420 kts | 92° |
| 2026-05-07 19:33 | 51.22234 | 1.86954 | 24605 ft | 423 kts | 92° |
| 2026-05-07 19:33 | 51.22181 | 1.91663 | 24966 ft | 426 kts | 92° |
| 2026-05-07 19:34 | 51.22125 | 1.96388 | 25065 ft | 427 kts | 92° |
| 2026-05-07 19:34 | 51.21946 | 2.01104 | 25103 ft | 425 kts | 101° |
| 2026-05-07 19:34 | 51.21174 | 2.05647 | 25350 ft | 425 kts | 108° |
| 2026-05-07 19:34 | 51.20306 | 2.10163 | 25594 ft | 427 kts | 109° |
| 2026-05-07 19:35 | 51.19428 | 2.14696 | 25846 ft | 429 kts | 109° |
| 2026-05-07 19:35 | 51.18542 | 2.19252 | 26040 ft | 430 kts | 109° |
| 2026-05-07 19:35 | 51.17651 | 2.23809 | 26085 ft | 431 kts | 109° |
| 2026-05-07 19:35 | 51.16754 | 2.28383 | 26173 ft | 434 kts | 109° |
| 2026-05-07 19:36 | 51.15849 | 2.32983 | 26595 ft | 435 kts | 109° |
| 2026-05-07 19:36 | 51.14941 | 2.37595 | 27041 ft | 438 kts | 109° |
| 2026-05-07 19:36 | 51.14024 | 2.42246 | 27471 ft | 441 kts | 109° |
| 2026-05-07 19:36 | 51.13231 | 2.46990 | 27890 ft | 446 kts | 99° |
| 2026-05-07 19:37 | 51.12968 | 2.51921 | 28321 ft | 450 kts | 95° |
| 2026-05-07 19:37 | 51.12761 | 2.56907 | 28754 ft | 453 kts | 94° |
| 2026-05-07 19:37 | 51.12561 | 2.61869 | 29174 ft | 456 kts | 94° |
| 2026-05-07 19:37 | 51.12357 | 2.66922 | 29585 ft | 459 kts | 95° |
| 2026-05-07 19:38 | 51.12112 | 2.72005 | 29987 ft | 461 kts | 96° |
| 2026-05-07 19:38 | 51.11823 | 2.77105 | 30342 ft | 464 kts | 96° |
| 2026-05-07 19:38 | 51.11505 | 2.82242 | 30672 ft | 467 kts | 97° |
| 2026-05-07 19:38 | 51.11172 | 2.87393 | 30996 ft | 469 kts | 97° |
| 2026-05-07 19:39 | 51.10837 | 2.92578 | 31316 ft | 472 kts | 97° |
| 2026-05-07 19:39 | 51.10505 | 2.97788 | 31634 ft | 474 kts | 96° |
| 2026-05-07 19:39 | 51.10175 | 3.03016 | 32034 ft | 474 kts | 96° |
| 2026-05-07 19:39 | 51.09847 | 3.08245 | 32505 ft | 473 kts | 96° |
| 2026-05-07 19:40 | 51.09519 | 3.13450 | 32938 ft | 473 kts | 96° |
| 2026-05-07 19:40 | 51.09195 | 3.18647 | 33066 ft | 469 kts | 96° |
| 2026-05-07 19:40 | 51.08878 | 3.23746 | 33088 ft | 458 kts | 96° |
| 2026-05-07 19:40 | 51.08567 | 3.28754 | 33082 ft | 454 kts | 97° |
| 2026-05-07 19:41 | 51.07933 | 3.38659 | 33083 ft | 451 kts | 97° |
| 2026-05-07 19:41 | 51.07279 | 3.48577 | 33080 ft | 451 kts | 97° |
| 2026-05-07 19:42 | 51.06618 | 3.58505 | 33085 ft | 451 kts | 97° |
| 2026-05-07 19:42 | 51.05957 | 3.68418 | 33086 ft | 451 kts | 97° |
| 2026-05-07 19:43 | 51.05282 | 3.78322 | 33077 ft | 451 kts | 97° |
| 2026-05-07 19:43 | 51.04603 | 3.88214 | 33085 ft | 450 kts | 97° |
| 2026-05-07 19:44 | 51.03922 | 3.98100 | 33080 ft | 450 kts | 97° |
| 2026-05-07 19:44 | 51.03226 | 4.07979 | 33077 ft | 449 kts | 97° |
| 2026-05-07 19:45 | 51.02522 | 4.17855 | 33075 ft | 450 kts | 97° |
| 2026-05-07 19:45 | 51.01804 | 4.27725 | 33076 ft | 450 kts | 97° |
| 2026-05-07 19:46 | 51.01087 | 4.37576 | 33081 ft | 449 kts | 97° |
| 2026-05-07 19:46 | 51.00356 | 4.47430 | 33077 ft | 449 kts | 97° |
| 2026-05-07 19:47 | 50.99623 | 4.57278 | 32913 ft | 450 kts | 98° |
| 2026-05-07 19:47 | 50.99249 | 4.62209 | 32649 ft | 450 kts | 98° |
| 2026-05-07 19:47 | 50.98871 | 4.67140 | 32379 ft | 450 kts | 98° |
| 2026-05-07 19:48 | 50.98492 | 4.72069 | 32112 ft | 450 kts | 98° |
| 2026-05-07 19:48 | 50.98116 | 4.76948 | 31854 ft | 450 kts | 98° |
| 2026-05-07 19:48 | 50.97737 | 4.81876 | 31600 ft | 450 kts | 98° |
| 2026-05-07 19:48 | 50.97355 | 4.86806 | 31339 ft | 450 kts | 98° |
| 2026-05-07 19:49 | 50.96970 | 4.91750 | 31080 ft | 450 kts | 98° |
| 2026-05-07 19:49 | 50.96587 | 4.96672 | 30831 ft | 449 kts | 98° |
| 2026-05-07 19:49 | 50.96208 | 5.01580 | 30581 ft | 448 kts | 98° |
| 2026-05-07 19:49 | 50.95826 | 5.06473 | 30334 ft | 446 kts | 98° |
| 2026-05-07 19:50 | 50.95440 | 5.11343 | 30075 ft | 444 kts | 98° |
| 2026-05-07 19:50 | 50.95048 | 5.16199 | 29784 ft | 443 kts | 98° |
| 2026-05-07 19:50 | 50.94654 | 5.21034 | 29495 ft | 440 kts | 98° |
| 2026-05-07 19:50 | 50.94262 | 5.25821 | 29213 ft | 437 kts | 98° |
| 2026-05-07 19:51 | 50.93869 | 5.30583 | 28840 ft | 433 kts | 98° |
| 2026-05-07 19:51 | 50.93480 | 5.35297 | 28302 ft | 429 kts | 98° |
| 2026-05-07 19:51 | 50.93097 | 5.39966 | 27761 ft | 425 kts | 98° |
| 2026-05-07 19:51 | 50.92718 | 5.44598 | 27225 ft | 422 kts | 98° |
| 2026-05-07 19:52 | 50.92341 | 5.49196 | 26700 ft | 419 kts | 98° |
| 2026-05-07 19:52 | 50.91962 | 5.53767 | 26201 ft | 417 kts | 98° |
| 2026-05-07 19:52 | 50.91579 | 5.58303 | 25939 ft | 415 kts | 98° |
| 2026-05-07 19:52 | 50.91193 | 5.62821 | 25696 ft | 413 kts | 99° |
| 2026-05-07 19:53 | 50.90806 | 5.67327 | 25559 ft | 412 kts | 98° |
| 2026-05-07 19:53 | 50.90627 | 5.71837 | 25300 ft | 409 kts | 86° |
| 2026-05-07 19:53 | 50.91180 | 5.76275 | 24424 ft | 417 kts | 69° |
| 2026-05-07 19:53 | 50.92468 | 5.80445 | 23328 ft | 427 kts | 61° |
| 2026-05-07 19:54 | 50.93902 | 5.84644 | 21943 ft | 438 kts | 61° |
| 2026-05-07 19:54 | 50.95354 | 5.88877 | 20522 ft | 447 kts | 61° |
| 2026-05-07 19:54 | 50.96845 | 5.93249 | 19359 ft | 450 kts | 61° |
| 2026-05-07 19:54 | 50.98317 | 5.97605 | 18395 ft | 442 kts | 62° |
| 2026-05-07 19:55 | 50.99746 | 6.01869 | 16931 ft | 433 kts | 62° |
| 2026-05-07 19:55 | 51.01144 | 6.06070 | 15558 ft | 426 kts | 62° |
| 2026-05-07 19:55 | 51.02511 | 6.10189 | 14279 ft | 418 kts | 62° |
| 2026-05-07 19:55 | 51.03855 | 6.14247 | 12980 ft | 411 kts | 62° |
| 2026-05-07 19:56 | 51.05170 | 6.18229 | 11707 ft | 403 kts | 62° |
| 2026-05-07 19:56 | 51.06461 | 6.22142 | 10475 ft | 394 kts | 62° |
| 2026-05-07 19:56 | 51.07721 | 6.25949 | 9187 ft | 385 kts | 62° |
| 2026-05-07 19:56 | 51.08955 | 6.29673 | 7896 ft | 376 kts | 62° |
| 2026-05-07 19:57 | 51.10158 | 6.33311 | 6666 ft | 367 kts | 62° |
| 2026-05-07 19:57 | 51.11330 | 6.36867 | 5408 ft | 358 kts | 62° |
| 2026-05-07 19:57 | 51.12453 | 6.40286 | 4835 ft | 335 kts | 62° |
| 2026-05-07 19:57 | 51.13485 | 6.43435 | 4545 ft | 306 kts | 62° |
| 2026-05-07 19:58 | 51.14430 | 6.46311 | 4328 ft | 281 kts | 62° |
| 2026-05-07 19:58 | 51.15368 | 6.48928 | 4073 ft | 263 kts | 55° |
| 2026-05-07 19:58 | 51.16418 | 6.51169 | 3903 ft | 245 kts | 52° |
| 2026-05-07 19:58 | 51.17445 | 6.53266 | 3603 ft | 235 kts | 52° |
| 2026-05-07 19:59 | 51.18419 | 6.55279 | 3317 ft | 223 kts | 52° |
| 2026-05-07 19:59 | 51.19338 | 6.57190 | 3008 ft | 212 kts | 53° |
| 2026-05-07 19:59 | 51.20211 | 6.59010 | 2735 ft | 202 kts | 52° |
| 2026-05-07 19:59 | 51.21045 | 6.60745 | 2509 ft | 191 kts | 52° |
| 2026-05-07 20:00 | 51.21828 | 6.62379 | 2196 ft | 179 kts | 53° |
| 2026-05-07 20:00 | 51.22556 | 6.63898 | 1965 ft | 166 kts | 53° |
| 2026-05-07 20:00 | 51.23234 | 6.65311 | 1747 ft | 155 kts | 53° |
| 2026-05-07 20:00 | 51.23861 | 6.66621 | 1541 ft | 143 kts | 53° |
| 2026-05-07 20:01 | 51.24434 | 6.67818 | 1361 ft | 130 kts | 53° |
| 2026-05-07 20:01 | 51.24976 | 6.68949 | 1183 ft | 127 kts | 54° |
| 2026-05-07 20:01 | 51.25500 | 6.70049 | 1024 ft | 126 kts | 54° |
| 2026-05-07 20:01 | 51.26030 | 6.71152 | 843 ft | 125 kts | 53° |
| 2026-05-07 20:02 | 51.26556 | 6.72251 | 678 ft | 124 kts | 53° |
| 2026-05-07 20:02 | 51.27076 | 6.73339 | 507 ft | 123 kts | 53° |
| 2026-05-07 20:02 | 51.27593 | 6.74422 | 342 ft | 123 kts | 53° |
| 2026-05-07 20:02 | 51.28110 | 6.75512 | 177 ft | 123 kts | 52° |
| 2026-05-07 20:03 | 51.28579 | 6.76500 | 128 ft | 94 kts | 53° |
| 2026-05-07 20:03 | 51.28871 | 6.77113 | 130 ft | 45 kts | 53° |
| 2026-05-07 20:03 | 51.29008 | 6.77411 | 129 ft | 24 kts | 62° |
| 2026-05-07 20:03 | 51.28999 | 6.77574 | 128 ft | 8 kts | 132° |
| 2026-05-07 20:04 | 51.28950 | 6.77636 | 129 ft | 9 kts | 144° |
| 2026-05-07 20:04 | 51.28885 | 6.77608 | 129 ft | 12 kts | 229° |
| 2026-05-07 20:04 | 51.28830 | 6.77491 | 128 ft | 15 kts | 233° |
| 2026-05-07 20:04 | 51.28762 | 6.77347 | 130 ft | 18 kts | 232° |
| 2026-05-07 20:05 | 51.28682 | 6.77179 | 126 ft | 20 kts | 233° |
| 2026-05-07 20:05 | 51.28591 | 6.76988 | 127 ft | 21 kts | 233° |
| 2026-05-07 20:05 | 51.28533 | 6.76867 | 126 ft | 21 kts | 232° |
| 2026-05-07 20:05 | 51.28442 | 6.76676 | 125 ft | 19 kts | 233° |
| 2026-05-07 20:06 | 51.28360 | 6.76503 | 124 ft | 19 kts | 233° |
| 2026-05-07 20:06 | 51.28255 | 6.76283 | 127 ft | 17 kts | 233° |
| 2026-05-07 20:06 | 51.28205 | 6.76178 | 129 ft | 17 kts | 233° |
| 2026-05-07 20:06 | 51.28114 | 6.76028 | 130 ft | 12 kts | 190° |
| 2026-05-07 20:07 | 51.28062 | 6.76047 | 130 ft | 11 kts | 175° |
| 2026-05-07 20:07 | 51.27988 | 6.76047 | 129 ft | 10 kts | 178° |
| 2026-05-07 20:07 | 51.27919 | 6.76048 | 130 ft | 10 kts | 181° |
| 2026-05-07 20:07 | 51.27858 | 6.76063 | 127 ft | 8 kts | 146° |
| 2026-05-07 20:08 | 51.27841 | 6.76141 | 128 ft | 8 kts | 93° |
| 2026-05-07 20:08 | 51.27839 | 6.76225 | 131 ft | 8 kts | 95° |
| 2026-05-07 20:08 | 51.27829 | 6.76307 | 131 ft | 7 kts | 119° |
| 2026-05-07 20:08 | 51.27787 | 6.76336 | 130 ft | 4 kts | 162° |
| 2026-05-07 20:09 | 51.27779 | 6.76340 | 128 ft | 0 kts | 163° |
| 2026-05-07 20:31 | 51.27779 | 6.76339 | 131 ft | 0 kts | 163° |